createdAt,value
2023-05-09T00:00:33.103Z,44.60
2023-05-09T00:02:59.908Z,43.67
2023-05-09T00:05:26.881Z,46.40
2023-05-09T00:07:53.588Z,43.67
2023-05-09T00:10:20.465Z,44.45
2023-05-09T00:12:47.275Z,44.55
2023-05-09T00:15:14.271Z,42.92
2023-05-09T00:17:41.496Z,40.88
2023-05-09T00:20:12.308Z,43.25
2023-05-09T00:22:41.148Z,42.22
2023-05-09T00:25:09.604Z,42.40
2023-05-09T00:27:36.453Z,43.35
2023-05-09T00:30:05.531Z,44.78
2023-05-09T00:32:33.401Z,43.28
2023-05-09T00:35:00.249Z,37.50
2023-05-09T00:37:27.166Z,39.95
2023-05-09T00:39:53.833Z,47.42
2023-05-09T00:42:20.637Z,45.10
2023-05-09T00:44:47.313Z,45.63
2023-05-09T00:47:14.044Z,50.03
2023-05-09T00:49:40.830Z,51.28
2023-05-09T00:52:07.532Z,43.38
2023-05-09T00:54:34.545Z,44.00
2023-05-09T00:57:01.433Z,46.83
2023-05-09T00:59:28.520Z,49.30
2023-05-09T01:01:56.117Z,53.15
2023-05-09T01:04:23.120Z,43.10
2023-05-09T01:06:52.544Z,41.70
2023-05-09T01:09:45.642Z,47.33
2023-05-09T01:12:24.388Z,43.67
2023-05-09T01:15:11.970Z,45.83
2023-05-09T01:18:01.123Z,45.63
2023-05-09T01:20:38.244Z,45.20
2023-05-09T01:23:36.761Z,53.38
2023-05-09T01:26:28.137Z,49.80
2023-05-09T01:29:19.506Z,54.38
2023-05-09T01:31:49.127Z,50.47
2023-05-09T01:34:18.037Z,48.58
2023-05-09T01:36:46.934Z,47.42
2023-05-09T01:39:14.805Z,47.17
2023-05-09T01:41:41.564Z,49.05
2023-05-09T01:44:11.732Z,45.75
2023-05-09T01:46:39.773Z,48.35
2023-05-09T01:49:08.468Z,44.00
2023-05-09T01:51:37.886Z,48.13
2023-05-09T01:54:06.895Z,44.53
2023-05-09T01:56:36.417Z,44.28
2023-05-09T01:59:06.585Z,42.00
2023-05-09T02:01:34.509Z,42.10
2023-05-09T02:04:05.081Z,45.38
2023-05-09T02:06:32.626Z,42.30
2023-05-09T02:08:59.927Z,41.40
2023-05-09T02:11:26.726Z,44.97
2023-05-09T02:13:53.558Z,43.17
2023-05-09T02:16:21.074Z,41.10
2023-05-09T02:18:47.910Z,39.65
2023-05-09T02:21:14.716Z,42.60
2023-05-09T02:23:41.594Z,42.15
2023-05-09T02:26:08.659Z,41.50
2023-05-09T02:28:36.968Z,42.35
2023-05-09T02:31:07.046Z,44.33
2023-05-09T02:33:36.117Z,43.53
2023-05-09T02:36:03.241Z,41.13
2023-05-09T02:38:30.047Z,42.42
2023-05-09T02:40:56.931Z,42.20
2023-05-09T02:43:23.716Z,43.00
2023-05-09T02:45:50.624Z,43.33
2023-05-09T02:48:17.430Z,41.38
2023-05-09T02:50:45.907Z,43.80
2023-05-09T02:53:12.607Z,42.80
2023-05-09T02:55:39.318Z,43.38
2023-05-09T02:58:13.255Z,39.55
2023-05-09T03:00:40.764Z,41.40
2023-05-09T03:03:07.572Z,39.08
2023-05-09T03:05:34.718Z,39.42
2023-05-09T03:08:01.561Z,41.22
2023-05-09T03:10:28.280Z,40.00
2023-05-09T03:12:55.089Z,40.60
2023-05-09T03:15:21.831Z,40.92
2023-05-09T03:17:48.531Z,38.97
2023-05-09T03:20:15.870Z,39.60
2023-05-09T03:22:42.735Z,44.55
2023-05-09T03:25:10.215Z,38.63
2023-05-09T03:27:36.925Z,41.90
2023-05-09T03:30:03.953Z,37.28
2023-05-09T03:32:30.841Z,36.92
2023-05-09T03:34:57.650Z,42.05
2023-05-09T03:37:26.232Z,37.58
2023-05-09T03:39:53.851Z,38.28
2023-05-09T03:42:21.420Z,36.70
2023-05-09T03:44:48.126Z,32.92
2023-05-09T03:47:14.835Z,32.88
2023-05-09T03:49:41.566Z,37.38
2023-05-09T03:52:08.255Z,32.67
2023-05-09T03:54:35.175Z,35.53
2023-05-09T03:57:01.868Z,31.70
2023-05-09T03:59:28.545Z,36.22
2023-05-09T04:01:55.384Z,34.83
2023-05-09T04:04:22.381Z,35.58
2023-05-09T04:06:49.113Z,32.22
2023-05-09T04:09:15.947Z,35.25
2023-05-09T04:11:42.737Z,36.38
2023-05-09T04:14:09.448Z,32.05
2023-05-09T04:16:36.227Z,33.17
2023-05-09T04:19:03.014Z,32.03
2023-05-09T04:21:29.735Z,33.90
2023-05-09T04:23:56.647Z,32.13
2023-05-09T04:26:24.692Z,33.33
2023-05-09T04:28:52.849Z,32.30
2023-05-09T04:31:19.674Z,32.10
2023-05-09T04:33:46.538Z,32.88
2023-05-09T04:36:13.288Z,34.15
2023-05-09T04:38:40.047Z,30.75
2023-05-09T04:41:07.150Z,27.85
2023-05-09T04:43:34.084Z,28.42
2023-05-09T04:46:01.352Z,28.13
2023-05-09T04:48:28.147Z,28.45
2023-05-09T04:50:55.015Z,28.38
2023-05-09T04:53:21.748Z,28.30
2023-05-09T04:55:48.421Z,26.25
2023-05-09T04:58:15.304Z,23.45
2023-05-09T05:00:42.039Z,25.50
2023-05-09T05:03:08.901Z,26.30
2023-05-09T05:05:37.339Z,25.33
2023-05-09T05:08:04.851Z,27.10
2023-05-09T05:10:31.687Z,25.17
2023-05-09T05:12:58.401Z,26.00
2023-05-09T05:15:26.860Z,26.23
2023-05-09T05:17:53.751Z,25.40
2023-05-09T05:20:21.201Z,25.27
2023-05-09T05:22:48.009Z,24.60
2023-05-09T05:25:15.271Z,26.45
2023-05-09T05:27:44.210Z,24.10
2023-05-09T05:30:11.624Z,24.48
2023-05-09T05:32:38.351Z,25.60
2023-05-09T05:35:05.563Z,24.58
2023-05-09T05:37:32.271Z,23.95
2023-05-09T05:39:59.105Z,22.35
2023-05-09T05:42:25.824Z,21.35
2023-05-09T05:44:52.592Z,22.85
2023-05-09T05:47:19.268Z,21.80
2023-05-09T05:49:46.290Z,25.92
2023-05-09T05:52:12.992Z,21.55
2023-05-09T05:54:39.676Z,24.35
2023-05-09T05:57:06.414Z,21.98
2023-05-09T05:59:33.091Z,22.38
2023-05-09T06:02:00.371Z,22.75
2023-05-09T06:04:28.961Z,23.35
2023-05-09T06:06:55.850Z,21.90
2023-05-09T06:09:22.654Z,25.63
2023-05-09T06:11:49.372Z,19.50
2023-05-09T06:14:16.112Z,21.17
2023-05-09T06:16:42.936Z,21.45
2023-05-09T06:19:09.663Z,22.33
2023-05-09T06:21:36.413Z,21.40
2023-05-09T06:24:11.959Z,21.17
2023-05-09T06:26:43.984Z,22.10
2023-05-09T06:29:10.816Z,22.80
2023-05-09T06:31:39.106Z,19.98
2023-05-09T06:34:06.432Z,21.30
2023-05-09T06:36:33.722Z,22.17
2023-05-09T06:39:00.810Z,27.50
2023-05-09T06:41:27.549Z,22.42
2023-05-09T06:43:54.272Z,23.25
2023-05-09T06:46:21.071Z,22.30
2023-05-09T06:48:47.777Z,24.58
2023-05-09T06:51:14.580Z,21.08
2023-05-09T06:53:41.337Z,24.55
2023-05-09T06:56:08.159Z,24.13
2023-05-09T06:58:34.972Z,22.83
2023-05-09T07:01:01.861Z,29.27
2023-05-09T07:03:28.597Z,22.05
2023-05-09T07:05:57.369Z,21.88
2023-05-09T07:08:24.273Z,24.52
2023-05-09T07:10:51.251Z,24.38
2023-05-09T07:13:18.017Z,26.15
2023-05-09T07:15:44.910Z,28.83
2023-05-09T07:18:11.827Z,25.65
2023-05-09T07:20:38.583Z,25.67
2023-05-09T07:23:06.046Z,25.02
2023-05-09T07:25:33.930Z,30.67
2023-05-09T07:28:01.067Z,28.38
2023-05-09T07:30:27.928Z,27.48
2023-05-09T07:32:54.750Z,25.45
2023-05-09T07:35:21.808Z,23.88
2023-05-09T07:37:48.615Z,28.48
2023-05-09T07:40:15.795Z,22.38
2023-05-09T07:42:49.400Z,24.92
2023-05-09T07:45:17.090Z,22.95
2023-05-09T07:47:44.493Z,22.27
2023-05-09T07:50:11.382Z,22.38
2023-05-09T07:52:38.168Z,26.55
2023-05-09T07:55:05.282Z,23.20
2023-05-09T07:57:32.086Z,23.42
2023-05-09T07:59:58.880Z,20.70
2023-05-09T08:02:25.912Z,21.48
2023-05-09T08:04:52.764Z,21.40
2023-05-09T08:07:19.471Z,21.63
2023-05-09T08:09:46.213Z,20.23
2023-05-09T08:12:13.010Z,19.95
2023-05-09T08:14:39.739Z,20.33
2023-05-09T08:17:06.483Z,17.35
2023-05-09T08:19:33.219Z,18.88
2023-05-09T08:22:00.751Z,18.08
2023-05-09T08:24:27.468Z,17.95
2023-05-09T08:26:54.192Z,16.55
2023-05-09T08:29:20.883Z,18.13
2023-05-09T08:31:47.614Z,16.15
2023-05-09T08:34:14.485Z,16.05
2023-05-09T08:36:41.410Z,16.65
2023-05-09T08:39:09.585Z,16.67
2023-05-09T08:41:37.010Z,18.08
2023-05-09T08:44:04.534Z,16.17
2023-05-09T08:46:37.099Z,14.43
2023-05-09T08:49:08.918Z,15.18
2023-05-09T08:51:36.682Z,15.18
2023-05-09T08:54:03.974Z,15.90
2023-05-09T08:56:31.532Z,16.48
2023-05-09T08:58:59.041Z,15.80
2023-05-09T09:01:26.888Z,16.17
2023-05-09T09:03:54.007Z,15.50
2023-05-09T09:06:22.557Z,16.58
2023-05-09T09:08:50.525Z,15.10
2023-05-09T09:11:17.632Z,14.18
2023-05-09T09:13:46.575Z,15.15
2023-05-09T09:16:21.328Z,14.10
2023-05-09T09:18:49.475Z,11.85
2023-05-09T09:21:17.674Z,13.43
2023-05-09T09:23:47.503Z,13.80
2023-05-09T09:26:14.985Z,15.13
2023-05-09T09:28:42.927Z,13.98
2023-05-09T09:31:27.663Z,13.45
2023-05-09T09:34:03.690Z,12.95
2023-05-09T09:36:32.548Z,14.32
2023-05-09T09:39:01.162Z,13.68
2023-05-09T09:41:35.558Z,16.63
2023-05-09T09:44:12.650Z,12.70
2023-05-09T09:46:46.688Z,12.70
2023-05-09T09:49:14.541Z,12.40
2023-05-09T09:51:42.199Z,12.25
2023-05-09T09:54:10.477Z,11.50
2023-05-09T09:56:47.412Z,15.85
2023-05-09T09:59:16.104Z,11.52
2023-05-09T10:02:07.060Z,11.98
2023-05-09T10:04:39.172Z,12.43
2023-05-09T10:07:07.536Z,13.30
2023-05-09T10:09:37.988Z,14.00
2023-05-09T10:12:06.779Z,11.73
2023-05-09T10:14:35.582Z,13.43
2023-05-09T10:17:04.396Z,11.93
2023-05-09T10:19:32.228Z,11.00
2023-05-09T10:22:10.052Z,15.65
2023-05-09T10:24:48.818Z,11.20
2023-05-09T10:27:21.681Z,15.57
2023-05-09T10:30:10.509Z,13.05
2023-05-09T10:32:54.947Z,11.05
2023-05-09T10:35:27.935Z,13.38
2023-05-09T10:37:59.327Z,14.10
2023-05-09T10:40:26.979Z,11.15
2023-05-09T10:42:53.713Z,12.18
2023-05-09T10:45:23.073Z,14.15
2023-05-09T10:47:53.050Z,15.37
2023-05-09T10:50:21.500Z,11.85
2023-05-09T10:53:03.937Z,12.40
2023-05-09T10:56:01.998Z,13.68
2023-05-09T10:58:33.735Z,12.98
2023-05-09T11:01:01.689Z,12.55
2023-05-09T11:03:49.883Z,13.43
2023-05-09T11:06:52.540Z,12.20
2023-05-09T11:09:41.595Z,12.20
2023-05-09T11:12:13.435Z,14.70
2023-05-09T11:14:48.885Z,12.38
2023-05-09T11:17:29.012Z,11.23
2023-05-09T11:20:05.744Z,10.95
2023-05-09T11:22:44.289Z,11.93
2023-05-09T11:25:13.322Z,12.30
2023-05-09T11:27:48.568Z,12.00
2023-05-09T11:30:20.592Z,12.43
2023-05-09T11:32:52.094Z,13.13
2023-05-09T11:35:21.275Z,11.25
2023-05-09T11:37:55.059Z,11.43
2023-05-09T11:40:22.706Z,12.75
2023-05-09T11:42:55.404Z,11.68
2023-05-09T11:45:27.014Z,13.18
2023-05-09T11:47:54.259Z,10.82
2023-05-09T11:50:21.698Z,11.52
2023-05-09T11:52:49.638Z,10.57
2023-05-09T11:55:19.357Z,11.32
2023-05-09T11:57:51.696Z,13.00
2023-05-09T12:00:20.695Z,10.82
2023-05-09T12:02:47.919Z,10.60
2023-05-09T12:05:16.947Z,9.98
2023-05-09T12:07:44.623Z,10.60
2023-05-09T12:10:16.324Z,9.25
2023-05-09T12:12:45.862Z,9.80
2023-05-09T12:15:13.964Z,10.90
2023-05-09T12:17:42.583Z,10.98
2023-05-09T12:20:10.233Z,9.00
2023-05-09T12:22:40.003Z,10.38
2023-05-09T12:25:10.370Z,13.00
2023-05-09T12:27:38.500Z,9.25
2023-05-09T12:30:09.895Z,8.52
2023-05-09T12:32:39.215Z,11.95
2023-05-09T12:35:10.488Z,11.43
2023-05-09T12:37:37.807Z,12.52
2023-05-09T12:40:13.055Z,9.93
2023-05-09T12:42:43.286Z,9.75
2023-05-09T12:45:11.223Z,9.45
2023-05-09T12:47:39.104Z,10.95
2023-05-09T12:50:07.555Z,9.02
2023-05-09T12:52:50.134Z,9.93
2023-05-09T12:55:25.544Z,11.77
2023-05-09T12:58:04.402Z,9.73
2023-05-09T13:00:46.074Z,9.02
2023-05-09T13:03:25.252Z,10.02
2023-05-09T13:06:04.407Z,11.68
2023-05-09T13:08:31.805Z,9.15
2023-05-09T13:11:12.018Z,13.18
2023-05-09T13:13:42.537Z,9.75
2023-05-09T13:16:11.487Z,8.43
2023-05-09T13:18:39.548Z,8.80
2023-05-09T13:21:06.281Z,10.63
2023-05-09T13:23:33.099Z,8.57
2023-05-09T13:25:59.839Z,10.23
2023-05-09T13:28:26.605Z,9.57
2023-05-09T13:30:53.427Z,9.02
2023-05-09T13:35:50.122Z,8.63
2023-05-09T13:38:16.927Z,8.93
2023-05-09T13:40:43.655Z,8.80
2023-05-09T13:43:10.460Z,8.73
2023-05-09T13:45:37.140Z,8.18
2023-05-09T13:48:04.312Z,6.75
2023-05-09T13:50:31.034Z,8.52
2023-05-09T13:52:58.635Z,6.38
2023-05-09T13:55:26.916Z,6.25
2023-05-09T13:57:53.667Z,8.15
2023-05-09T14:00:21.348Z,7.50
2023-05-09T14:02:48.529Z,6.28
2023-05-09T14:05:15.448Z,6.95
2023-05-09T14:07:42.838Z,6.15
2023-05-09T14:10:11.819Z,8.25
2023-05-09T14:12:47.128Z,6.15
2023-05-09T14:15:14.330Z,9.93
2023-05-09T14:17:41.288Z,7.68
2023-05-09T14:20:08.614Z,7.65
2023-05-09T14:22:36.408Z,6.85
2023-05-09T14:25:03.292Z,7.63
2023-05-09T14:27:30.285Z,7.35
2023-05-09T14:29:57.451Z,7.10
2023-05-09T14:32:24.325Z,8.38
2023-05-09T14:34:51.250Z,7.35
2023-05-09T14:37:17.964Z,7.55
2023-05-09T14:39:49.397Z,7.25
2023-05-09T14:42:16.696Z,7.75
2023-05-09T14:44:44.718Z,6.50
2023-05-09T14:47:12.135Z,6.53
2023-05-09T14:49:40.062Z,7.20
2023-05-09T14:52:06.855Z,7.28
2023-05-09T14:54:33.834Z,7.22
2023-05-09T14:57:02.026Z,8.05
2023-05-09T14:59:29.604Z,7.85
2023-05-09T15:01:56.370Z,6.80
2023-05-09T15:04:25.473Z,6.72
2023-05-09T15:06:52.270Z,8.23
2023-05-09T15:09:19.351Z,8.32
2023-05-09T15:11:48.914Z,7.25
2023-05-09T15:14:16.715Z,8.23
2023-05-09T15:16:44.004Z,7.47
2023-05-09T15:19:11.060Z,7.68
2023-05-09T15:21:37.846Z,7.45
2023-05-09T15:24:05.257Z,8.65
2023-05-09T15:26:32.414Z,6.40
2023-05-09T15:28:59.346Z,7.30
2023-05-09T15:31:26.333Z,7.10
2023-05-09T15:33:53.313Z,7.68
2023-05-09T15:36:20.037Z,6.05
2023-05-09T15:38:49.469Z,7.32
2023-05-09T15:41:16.780Z,8.30
2023-05-09T15:43:43.604Z,6.82
2023-05-09T15:46:10.533Z,8.70
2023-05-09T15:48:37.487Z,7.55
2023-05-09T15:51:04.529Z,6.70
2023-05-09T15:53:31.643Z,5.25
2023-05-09T15:55:58.418Z,5.40
2023-05-09T15:58:25.470Z,7.40
2023-05-09T16:00:52.339Z,4.90
2023-05-09T16:03:19.649Z,4.40
2023-05-09T16:05:46.907Z,6.68
2023-05-09T16:08:13.764Z,5.57
2023-05-09T16:10:40.875Z,4.97
2023-05-09T16:13:08.039Z,5.75
2023-05-09T16:15:35.362Z,5.88
2023-05-09T16:18:02.121Z,5.32
2023-05-09T16:20:29.077Z,5.57
2023-05-09T16:22:55.891Z,6.25
2023-05-09T16:25:22.740Z,5.32
2023-05-09T16:27:49.564Z,6.97
2023-05-09T16:30:17.172Z,6.00
2023-05-09T16:32:44.603Z,5.55
2023-05-09T16:35:11.395Z,7.25
2023-05-09T16:37:38.279Z,5.70
2023-05-09T16:40:05.599Z,5.78
2023-05-09T16:42:32.363Z,6.75
2023-05-09T16:45:00.204Z,7.38
2023-05-09T16:47:27.070Z,6.30
2023-05-09T16:49:53.757Z,6.55
2023-05-09T16:52:20.771Z,6.95
2023-05-09T16:54:49.161Z,7.97
2023-05-09T16:57:16.181Z,6.47
2023-05-09T16:59:42.953Z,6.93
2023-05-09T17:02:09.657Z,6.50
2023-05-09T17:04:37.654Z,5.95
2023-05-09T17:07:04.802Z,7.68
2023-05-09T17:09:32.321Z,6.55
2023-05-09T17:11:59.225Z,7.00
2023-05-09T17:14:26.872Z,8.60
2023-05-09T17:16:54.058Z,7.80
2023-05-09T17:19:23.373Z,8.38
2023-05-09T17:21:50.747Z,8.47
2023-05-09T17:24:17.909Z,7.88
2023-05-09T17:26:44.615Z,8.50
2023-05-09T17:29:11.449Z,8.55
2023-05-09T17:31:38.230Z,8.95
2023-05-09T17:34:05.671Z,9.13
2023-05-09T17:36:33.616Z,11.60
2023-05-09T17:39:00.885Z,8.38
2023-05-09T17:41:27.732Z,7.80
2023-05-09T17:43:57.241Z,8.88
2023-05-09T17:46:24.484Z,8.38
2023-05-09T17:48:51.390Z,8.45
2023-05-09T17:51:18.277Z,8.27
2023-05-09T17:53:45.002Z,9.30
2023-05-09T17:56:11.812Z,9.02
2023-05-09T17:58:38.634Z,9.88
2023-05-09T18:01:05.667Z,8.73
2023-05-09T18:03:32.851Z,9.75
2023-05-09T18:06:02.765Z,9.18
2023-05-09T18:08:29.884Z,10.43
2023-05-09T18:10:57.340Z,10.88
2023-05-09T18:13:24.446Z,9.18
2023-05-09T18:15:51.480Z,7.63
2023-05-09T18:18:18.475Z,8.70
2023-05-09T18:20:47.092Z,7.55
2023-05-09T18:23:14.755Z,6.80
2023-05-09T18:25:41.989Z,6.95
2023-05-09T18:28:09.326Z,6.45
2023-05-09T18:30:36.249Z,10.07
2023-05-09T18:33:03.228Z,7.63
2023-05-09T18:35:30.088Z,7.63
2023-05-09T18:37:56.909Z,11.27
2023-05-09T18:40:23.862Z,7.72
2023-05-09T18:42:50.798Z,6.93
2023-05-09T18:45:18.200Z,6.75
2023-05-09T18:47:44.971Z,7.38
2023-05-09T18:50:13.594Z,10.57
2023-05-09T18:52:41.493Z,7.60
2023-05-09T18:55:08.662Z,8.73
2023-05-09T18:57:35.518Z,8.68
2023-05-09T19:00:02.262Z,8.15
2023-05-09T19:02:30.158Z,9.90
2023-05-09T19:04:57.159Z,8.48
2023-05-09T19:07:24.973Z,9.07
2023-05-09T19:09:51.812Z,8.88
2023-05-09T19:12:19.214Z,9.55
2023-05-09T19:14:45.984Z,8.77
2023-05-09T19:17:12.851Z,8.23
2023-05-09T19:19:40.400Z,12.00
2023-05-09T19:22:07.161Z,9.77
2023-05-09T19:24:33.942Z,8.75
2023-05-09T19:27:00.844Z,8.05
2023-05-09T19:29:27.571Z,10.63
2023-05-09T19:31:54.532Z,9.73
2023-05-09T19:34:21.644Z,8.05
2023-05-09T19:36:48.559Z,7.82
2023-05-09T19:39:15.337Z,7.97
2023-05-09T19:41:42.128Z,9.20
2023-05-09T19:44:08.950Z,9.57
2023-05-09T19:46:38.147Z,8.30
2023-05-09T19:49:06.175Z,8.30
2023-05-09T19:51:33.148Z,9.77
2023-05-09T19:53:59.953Z,9.23
2023-05-09T19:56:27.327Z,8.90
2023-05-09T19:58:54.816Z,6.95
2023-05-09T20:01:21.912Z,6.72
2023-05-09T20:03:51.991Z,8.90
2023-05-09T20:06:19.519Z,7.47
2023-05-09T20:08:46.993Z,7.43
2023-05-09T20:11:14.778Z,8.68
2023-05-09T20:13:42.107Z,7.60
2023-05-09T20:16:09.150Z,8.88
2023-05-09T20:18:35.996Z,7.57
2023-05-09T20:21:03.768Z,7.53
2023-05-09T20:23:31.187Z,8.13
2023-05-09T20:25:58.152Z,7.85
2023-05-09T20:28:25.248Z,7.60
2023-05-09T20:30:52.068Z,8.38
2023-05-09T20:33:19.058Z,8.63
2023-05-09T20:35:45.868Z,12.15
2023-05-09T20:38:12.609Z,9.55
2023-05-09T20:40:40.376Z,9.77
2023-05-09T20:43:07.508Z,10.35
2023-05-09T20:45:36.483Z,11.88
2023-05-09T20:48:05.610Z,9.15
2023-05-09T20:50:32.512Z,9.82
2023-05-09T20:52:59.219Z,11.13
2023-05-09T20:55:25.965Z,12.73
2023-05-09T20:57:52.679Z,10.73
2023-05-09T21:00:19.589Z,11.80
2023-05-09T21:02:46.484Z,13.57
2023-05-09T21:05:13.338Z,11.75
2023-05-09T21:07:41.552Z,12.25
2023-05-09T21:10:10.193Z,13.20
2023-05-09T21:12:37.099Z,12.50
2023-05-09T21:15:04.230Z,14.50
2023-05-09T21:17:31.325Z,15.70
2023-05-09T21:19:58.086Z,13.93
2023-05-09T21:22:25.064Z,12.82
2023-05-09T21:24:51.826Z,16.38
2023-05-09T21:27:18.736Z,15.45
2023-05-09T21:29:49.154Z,17.35
2023-05-09T21:32:16.943Z,17.45
2023-05-09T21:34:43.700Z,17.88
2023-05-09T21:37:10.522Z,17.17
2023-05-09T21:39:37.275Z,19.50
2023-05-09T21:42:04.300Z,17.98
2023-05-09T21:44:31.221Z,18.63
2023-05-09T21:46:58.091Z,19.77
2023-05-09T21:49:26.789Z,18.65
2023-05-09T21:51:53.489Z,20.88
2023-05-09T21:54:20.976Z,23.77
2023-05-09T21:56:47.668Z,20.00
2023-05-09T21:59:14.436Z,22.15
2023-05-09T22:01:42.135Z,20.77
2023-05-09T22:04:10.533Z,22.17
2023-05-09T22:06:37.383Z,25.38
2023-05-09T22:09:05.459Z,25.70
2023-05-09T22:11:32.208Z,22.98
2023-05-09T22:13:58.902Z,23.55
2023-05-09T22:16:25.841Z,25.05
2023-05-09T22:18:53.681Z,22.92
2023-05-09T22:21:20.456Z,25.75
2023-05-09T22:23:47.215Z,28.35
2023-05-09T22:26:13.958Z,28.65
2023-05-09T22:28:40.709Z,30.55
2023-05-09T22:31:07.729Z,33.33
2023-05-09T22:33:34.540Z,29.90
2023-05-09T22:36:01.504Z,30.15
2023-05-09T22:38:28.234Z,29.48
2023-05-09T22:40:55.001Z,31.58
2023-05-09T22:43:22.280Z,28.58
2023-05-09T22:45:49.141Z,28.83
2023-05-09T22:48:16.375Z,30.75
2023-05-09T22:50:43.052Z,32.15
2023-05-09T22:53:09.821Z,34.80
2023-05-09T22:55:36.591Z,32.85
2023-05-09T22:58:03.739Z,34.15
2023-05-09T23:00:30.773Z,30.70
2023-05-09T23:02:59.349Z,29.15
2023-05-09T23:05:26.290Z,30.55
2023-05-09T23:07:53.009Z,35.00
2023-05-09T23:10:19.792Z,29.00
2023-05-09T23:12:46.609Z,32.10
2023-05-09T23:15:13.427Z,32.25
2023-05-09T23:17:41.629Z,32.22
2023-05-09T23:20:09.012Z,34.13
2023-05-09T23:22:35.871Z,34.65
2023-05-09T23:25:03.316Z,32.38
2023-05-09T23:27:31.230Z,30.90
2023-05-09T23:29:58.014Z,33.45
2023-05-09T23:32:24.817Z,33.42
2023-05-09T23:34:52.070Z,31.83
2023-05-09T23:37:18.789Z,34.63
2023-05-09T23:39:45.466Z,32.47
2023-05-09T23:42:12.364Z,32.30
2023-05-09T23:44:39.267Z,33.00
2023-05-09T23:47:06.293Z,33.90
2023-05-09T23:49:33.014Z,37.70
2023-05-09T23:51:59.719Z,35.35
2023-05-09T23:54:27.204Z,35.15
2023-05-09T23:56:54.096Z,35.30
2023-05-09T23:59:20.869Z,37.47
